createdAt,value
2023-09-20T00:00:44.401Z,100470.91
2023-09-20T00:03:14.582Z,100473.56
2023-09-20T00:05:48.869Z,100470.44
2023-09-20T00:08:21.677Z,100468.97
2023-09-20T00:10:52.443Z,100469.19
2023-09-20T00:13:22.483Z,100470.16
2023-09-20T00:15:56.509Z,100468.09
2023-09-20T00:18:28.516Z,100461.09
2023-09-20T00:21:02.637Z,100467.44
2023-09-20T00:23:36.398Z,100463.13
2023-09-20T00:26:06.611Z,100466.81
2023-09-20T00:28:37.183Z,100464.16
2023-09-20T00:31:07.446Z,100457.78
2023-09-20T00:33:38.254Z,100465.16
2023-09-20T00:36:09.090Z,100469.88
2023-09-20T00:38:43.198Z,100459.59
2023-09-20T00:41:13.607Z,100460.59
2023-09-20T00:43:43.794Z,100464.50
2023-09-20T00:46:14.500Z,100468.56
2023-09-20T00:48:46.485Z,100468.56
2023-09-20T00:51:18.109Z,100464.25
2023-09-20T00:53:50.881Z,100471.22
2023-09-20T00:56:21.007Z,100463.63
2023-09-20T00:58:52.624Z,100470.16
2023-09-20T01:01:23.089Z,100463.81
2023-09-20T01:03:55.621Z,100465.19
2023-09-20T01:06:28.456Z,100466.19
2023-09-20T01:09:01.241Z,100474.84
2023-09-20T01:11:32.140Z,100475.41
2023-09-20T01:14:03.699Z,100478.47
2023-09-20T01:16:34.674Z,100486.28
2023-09-20T01:19:07.737Z,100471.91
2023-09-20T01:21:48.034Z,100483.41
2023-09-20T01:24:20.269Z,100478.47
2023-09-20T01:26:53.145Z,100484.81
2023-09-20T01:29:23.505Z,100484.00
2023-09-20T01:31:53.709Z,100482.16
2023-09-20T01:34:23.895Z,100476.38
2023-09-20T01:36:56.722Z,100471.22
2023-09-20T01:39:27.333Z,100480.25
2023-09-20T01:42:00.440Z,100475.09
2023-09-20T01:44:30.917Z,100465.44
2023-09-20T01:47:05.370Z,100466.28
2023-09-20T01:49:39.708Z,100468.50
2023-09-20T01:52:12.812Z,100469.91
2023-09-20T01:54:43.777Z,100469.28
2023-09-20T01:57:14.226Z,100465.16
2023-09-20T01:59:44.608Z,100464.31
2023-09-20T02:02:14.976Z,100458.16
2023-09-20T02:04:50.169Z,100462.66
2023-09-20T02:07:25.285Z,100474.53
2023-09-20T02:09:55.308Z,100472.50
2023-09-20T02:12:25.339Z,100475.38
2023-09-20T02:14:55.529Z,100474.53
2023-09-20T02:17:27.700Z,100478.03
2023-09-20T02:19:57.844Z,100472.06
2023-09-20T02:22:32.409Z,100469.41
2023-09-20T02:25:02.509Z,100475.75
2023-09-20T02:27:32.644Z,100469.13
2023-09-20T02:30:02.764Z,100470.13
2023-09-20T02:32:36.634Z,100469.31
2023-09-20T02:35:08.276Z,100463.78
2023-09-20T02:37:42.722Z,100470.75
2023-09-20T02:40:14.656Z,100469.13
2023-09-20T02:42:48.433Z,100465.25
2023-09-20T02:45:23.668Z,100458.09
2023-09-20T02:47:56.067Z,100458.91
2023-09-20T02:50:27.890Z,100464.06
2023-09-20T02:53:00.696Z,100452.38
2023-09-20T02:55:35.002Z,100459.81
2023-09-20T02:58:05.870Z,100462.66
2023-09-20T03:00:36.153Z,100455.28
2023-09-20T03:03:09.173Z,100471.75
2023-09-20T03:05:40.346Z,100464.38
2023-09-20T03:08:16.439Z,100451.66
2023-09-20T03:10:48.007Z,100459.47
2023-09-20T03:13:21.234Z,100461.97
2023-09-20T03:15:56.484Z,100452.13
2023-09-20T03:18:29.467Z,100455.41
2023-09-20T03:21:11.970Z,100447.41
2023-09-20T03:23:46.309Z,100445.13
2023-09-20T03:26:17.775Z,100444.09
2023-09-20T03:28:50.131Z,100455.22
2023-09-20T03:31:23.631Z,100455.03
2023-09-20T03:33:54.845Z,100454.22
2023-09-20T03:36:28.744Z,100447.84
2023-09-20T03:39:02.057Z,100448.03
2023-09-20T03:41:33.314Z,100449.31
2023-09-20T03:44:03.962Z,100456.09
2023-09-20T03:46:34.148Z,100454.66
2023-09-20T03:49:04.794Z,100447.28
2023-09-20T03:51:34.929Z,100447.28
2023-09-20T03:54:09.408Z,100443.59
2023-09-20T03:56:42.561Z,100453.25
2023-09-20T03:59:14.144Z,100445.63
2023-09-20T04:01:44.564Z,100444.78
2023-09-20T04:04:17.124Z,100443.97
2023-09-20T04:06:49.032Z,100440.47
2023-09-20T04:09:22.342Z,100446.63
2023-09-20T04:11:52.647Z,100445.00
2023-09-20T04:14:22.900Z,100450.13
2023-09-20T04:16:58.385Z,100460.81
2023-09-20T04:19:29.207Z,100450.53
2023-09-20T04:22:02.676Z,100455.03
2023-09-20T04:24:35.421Z,100450.53
2023-09-20T04:27:06.767Z,100456.03
2023-09-20T04:29:39.783Z,100455.41
2023-09-20T04:32:10.115Z,100458.47
2023-09-20T04:34:41.490Z,100463.59
2023-09-20T04:37:16.572Z,100462.97
2023-09-20T04:39:49.806Z,100465.84
2023-09-20T04:42:20.445Z,100463.34
2023-09-20T04:44:52.546Z,100475.88
2023-09-20T04:47:23.018Z,100469.91
2023-09-20T04:49:53.171Z,100479.56
2023-09-20T04:52:23.600Z,100477.72
2023-09-20T04:54:59.294Z,100481.03
2023-09-20T04:57:29.637Z,100490.69
2023-09-20T05:00:01.131Z,100490.22
2023-09-20T05:02:31.754Z,100484.06
2023-09-20T05:05:02.272Z,100488.19
2023-09-20T05:07:32.993Z,100490.22
2023-09-20T05:10:07.601Z,100491.44
2023-09-20T05:12:37.906Z,100496.59
2023-09-20T05:15:09.281Z,100493.28
2023-09-20T05:17:39.660Z,100495.31
2023-09-20T05:20:13.394Z,100490.81
2023-09-20T05:22:43.740Z,100496.34
2023-09-20T05:25:16.653Z,100501.28
2023-09-20T05:27:47.962Z,100505.41
2023-09-20T05:30:19.685Z,100500.91
2023-09-20T05:32:53.469Z,100496.19
2023-09-20T05:35:23.938Z,100496.00
2023-09-20T05:37:53.956Z,100503.44
2023-09-20T05:40:29.657Z,100506.75
2023-09-20T05:42:59.668Z,100499.81
2023-09-20T05:45:29.887Z,100508.91
2023-09-20T05:47:59.996Z,100504.38
2023-09-20T05:50:35.024Z,100517.53
2023-09-20T05:53:06.460Z,100501.53
2023-09-20T05:55:40.170Z,100507.53
2023-09-20T05:58:10.626Z,100511.66
2023-09-20T06:00:40.718Z,100515.97
2023-09-20T06:03:13.312Z,100515.59
2023-09-20T06:05:43.640Z,100512.97
2023-09-20T06:08:15.805Z,100517.75
2023-09-20T06:10:48.450Z,100511.81
2023-09-20T06:13:18.452Z,100519.09
2023-09-20T06:15:51.624Z,100515.72
2023-09-20T06:18:21.967Z,100521.78
2023-09-20T06:20:52.463Z,100523.28
2023-09-20T06:23:23.249Z,100514.53
2023-09-20T06:25:56.067Z,100516.88
2023-09-20T06:28:29.313Z,100511.91
2023-09-20T06:30:59.562Z,100514.13
2023-09-20T06:33:29.819Z,100516.69
2023-09-20T06:36:00.672Z,100513.25
2023-09-20T06:38:31.882Z,100517.34
2023-09-20T06:41:05.809Z,100520.84
2023-09-20T06:43:37.454Z,100524.88
2023-09-20T06:46:11.891Z,100511.78
2023-09-20T06:48:42.981Z,100521.78
2023-09-20T06:51:14.200Z,100516.69
2023-09-20T06:53:44.812Z,100522.38
2023-09-20T06:56:18.941Z,100517.81
2023-09-20T06:58:49.318Z,100519.53
2023-09-20T07:01:20.604Z,100526.09
2023-09-20T07:03:50.947Z,100536.28
2023-09-20T07:06:21.014Z,100534.47
2023-09-20T07:08:51.209Z,100537.63
2023-09-20T07:11:23.880Z,100528.03
2023-09-20T07:13:53.936Z,100528.00
2023-09-20T07:16:24.666Z,100528.13
2023-09-20T07:18:56.635Z,100530.38
2023-09-20T07:21:26.660Z,100530.59
2023-09-20T07:23:56.979Z,100536.34
2023-09-20T07:26:29.738Z,100534.03
2023-09-20T07:28:59.905Z,100533.34
2023-09-20T07:31:32.158Z,100525.56
2023-09-20T07:34:05.382Z,100537.81
2023-09-20T07:36:38.286Z,100539.06
2023-09-20T07:39:09.931Z,100530.16
2023-09-20T07:41:46.307Z,100530.03
2023-09-20T07:44:17.153Z,100540.63
2023-09-20T07:46:48.473Z,100533.28
2023-09-20T07:49:19.229Z,100533.38
2023-09-20T07:51:51.527Z,100550.84
2023-09-20T07:54:21.796Z,100542.66
2023-09-20T07:56:54.552Z,100542.47
2023-09-20T07:59:29.739Z,100547.13
2023-09-20T08:02:02.438Z,100543.47
2023-09-20T08:04:38.711Z,100542.44
2023-09-20T08:07:11.996Z,100541.13
2023-09-20T08:09:42.081Z,100547.94
2023-09-20T08:12:15.482Z,100546.53
2023-09-20T08:14:45.569Z,100550.34
2023-09-20T08:17:28.189Z,100553.47
2023-09-20T08:19:58.290Z,100563.63
2023-09-20T08:22:40.543Z,100570.50
2023-09-20T08:25:23.921Z,100546.47
2023-09-20T08:28:08.952Z,100547.97
2023-09-20T08:30:51.483Z,100549.13
2023-09-20T08:33:34.057Z,100555.59
2023-09-20T08:36:16.538Z,100559.91
2023-09-20T08:38:59.165Z,100551.75
2023-09-20T08:41:41.690Z,100558.94
2023-09-20T08:44:26.874Z,100561.47
2023-09-20T08:47:10.431Z,100556.88
2023-09-20T08:49:53.953Z,100554.63
2023-09-20T08:52:36.948Z,100557.75
2023-09-20T08:55:20.207Z,100546.06
2023-09-20T08:58:03.527Z,100552.41
2023-09-20T09:00:36.734Z,100552.84
2023-09-20T09:03:08.818Z,100556.97
2023-09-20T09:05:39.031Z,100546.13
2023-09-20T09:08:09.756Z,100548.09
2023-09-20T09:10:39.940Z,100552.44
2023-09-20T09:13:10.028Z,100538.66
2023-09-20T09:15:43.416Z,100541.41
2023-09-20T09:18:22.080Z,100543.97
2023-09-20T09:20:52.958Z,100536.47
2023-09-20T09:23:37.469Z,100533.06
2023-09-20T09:26:09.187Z,100533.03
2023-09-20T09:28:41.840Z,100529.03
2023-09-20T09:31:14.958Z,100524.63
2023-09-20T09:33:46.061Z,100532.22
2023-09-20T09:36:16.249Z,100534.09
2023-09-20T09:38:46.403Z,100534.34
2023-09-20T09:41:16.583Z,100544.25
2023-09-20T09:44:00.084Z,100536.69
2023-09-20T09:46:35.687Z,100528.13
2023-09-20T09:49:17.412Z,100535.84
2023-09-20T09:51:52.165Z,100539.22
2023-09-20T09:54:24.241Z,100530.88
2023-09-20T09:56:54.744Z,100541.69
2023-09-20T09:59:24.929Z,100532.63
2023-09-20T10:02:03.800Z,100544.22
2023-09-20T10:04:38.047Z,100541.72
2023-09-20T10:07:17.821Z,100534.53
2023-09-20T10:09:54.493Z,100531.44
2023-09-20T10:12:26.689Z,100517.75
2023-09-20T10:14:57.494Z,100528.56
2023-09-20T10:17:31.942Z,100546.69
2023-09-20T10:20:02.165Z,100512.53
2023-09-20T10:22:35.873Z,100520.47
2023-09-20T10:25:06.896Z,100520.47
2023-09-20T10:27:38.152Z,100522.97
2023-09-20T10:30:11.627Z,100520.91
2023-09-20T10:32:59.685Z,100514.59
2023-09-20T10:35:31.799Z,100513.34
2023-09-20T10:38:08.714Z,100511.78
2023-09-20T10:41:01.871Z,100519.56
2023-09-20T10:43:50.783Z,100513.47
2023-09-20T10:46:23.948Z,100514.00
2023-09-20T10:48:57.761Z,100518.75
2023-09-20T10:51:50.177Z,100505.25
2023-09-20T10:54:31.199Z,100506.56
2023-09-20T10:57:09.118Z,100506.78
2023-09-20T10:59:42.724Z,100490.44
2023-09-20T11:02:17.952Z,100491.47
2023-09-20T11:04:51.390Z,100493.97
2023-09-20T11:07:22.155Z,100481.00
2023-09-20T11:09:53.197Z,100478.09
2023-09-20T11:12:23.486Z,100486.56
2023-09-20T11:14:56.138Z,100479.41
2023-09-20T11:17:26.905Z,100487.97
2023-09-20T11:20:02.061Z,100489.75
2023-09-20T11:22:33.004Z,100467.59
2023-09-20T11:25:05.883Z,100470.59
2023-09-20T11:27:38.375Z,100466.22
2023-09-20T11:30:10.379Z,100458.00
2023-09-20T11:32:44.003Z,100462.81
2023-09-20T11:35:38.793Z,100471.72
2023-09-20T11:38:13.863Z,100479.88
2023-09-20T11:40:44.278Z,100479.25
2023-09-20T11:43:14.477Z,100469.50
2023-09-20T11:46:04.786Z,100482.06
2023-09-20T11:48:35.249Z,100481.81
2023-09-20T11:51:12.378Z,100481.59
2023-09-20T11:53:45.736Z,100484.50
2023-09-20T11:56:16.237Z,100488.19
2023-09-20T11:58:47.962Z,100487.28
2023-09-20T12:01:18.035Z,100487.00
2023-09-20T12:03:48.424Z,100477.22
2023-09-20T12:06:21.270Z,100473.53
2023-09-20T12:08:52.333Z,100477.94
2023-09-20T12:11:22.693Z,100465.41
2023-09-20T12:13:53.147Z,100464.81
2023-09-20T12:16:25.209Z,100467.69
2023-09-20T12:18:56.200Z,100452.84
2023-09-20T12:21:30.733Z,100452.97
2023-09-20T12:24:00.862Z,100451.16
2023-09-20T12:26:30.892Z,100448.97
2023-09-20T12:29:01.037Z,100441.25
2023-09-20T12:31:31.064Z,100445.03
2023-09-20T12:34:02.385Z,100439.47
2023-09-20T12:36:35.140Z,100434.31
2023-09-20T12:39:06.474Z,100434.38
2023-09-20T12:41:38.952Z,100432.16
2023-09-20T12:44:10.355Z,100427.03
2023-09-20T12:46:40.765Z,100420.78
2023-09-20T12:49:11.425Z,100430.47
2023-09-20T12:51:44.866Z,100421.38
2023-09-20T12:54:17.713Z,100426.50
2023-09-20T12:56:48.501Z,100418.38
2023-09-20T12:59:21.071Z,100423.94
2023-09-20T13:01:51.488Z,100408.22
2023-09-20T13:04:21.647Z,100405.56
2023-09-20T13:06:54.679Z,100403.97
2023-09-20T13:09:25.122Z,100402.56
2023-09-20T13:11:55.229Z,100401.13
2023-09-20T13:14:25.819Z,100393.97
2023-09-20T13:16:55.931Z,100399.59
2023-09-20T13:19:26.110Z,100393.78
2023-09-20T13:22:00.591Z,100386.34
2023-09-20T13:24:32.656Z,100388.69
2023-09-20T13:27:03.151Z,100385.94
2023-09-20T13:29:33.386Z,100397.69
2023-09-20T13:32:04.095Z,100396.78
2023-09-20T13:34:34.341Z,100393.66
2023-09-20T13:37:07.416Z,100394.03
2023-09-20T13:39:43.551Z,100387.47
2023-09-20T13:42:14.153Z,100381.16
2023-09-20T13:44:46.955Z,100399.22
2023-09-20T13:47:26.664Z,100375.84
2023-09-20T13:49:57.394Z,100368.75
2023-09-20T13:52:31.168Z,100380.72
2023-09-20T13:55:01.269Z,100379.69
2023-09-20T13:57:31.402Z,100368.41
2023-09-20T14:00:05.012Z,100373.25
2023-09-20T14:02:41.911Z,100366.72
2023-09-20T14:05:18.239Z,100378.09
2023-09-20T14:07:52.982Z,100366.31
2023-09-20T14:10:24.024Z,100362.25
2023-09-20T14:12:55.140Z,100361.69
2023-09-20T14:15:26.611Z,100366.75
2023-09-20T14:18:00.172Z,100367.47
2023-09-20T14:20:35.583Z,100363.03
2023-09-20T14:23:08.644Z,100364.31
2023-09-20T14:25:39.600Z,100355.59
2023-09-20T14:28:10.077Z,100356.00
2023-09-20T14:30:40.352Z,100356.47
2023-09-20T14:33:12.082Z,100352.63
2023-09-20T14:35:45.684Z,100357.53
2023-09-20T14:38:18.574Z,100357.09
2023-09-20T14:40:49.062Z,100349.56
2023-09-20T14:43:19.263Z,100355.06
2023-09-20T14:45:49.990Z,100356.19
2023-09-20T14:48:20.476Z,100352.47
2023-09-20T14:50:50.833Z,100357.94
2023-09-20T14:53:24.095Z,100353.63
2023-09-20T14:55:54.517Z,100348.53
2023-09-20T14:58:25.526Z,100346.16
2023-09-20T15:00:55.874Z,100344.13
2023-09-20T15:03:29.674Z,100336.59
2023-09-20T15:06:00.054Z,100333.63
2023-09-20T15:08:32.861Z,100334.97
2023-09-20T15:11:04.459Z,100336.00
2023-09-20T15:13:34.666Z,100335.31
2023-09-20T15:16:04.837Z,100339.63
2023-09-20T15:18:37.433Z,100336.88
2023-09-20T15:21:10.350Z,100350.63
2023-09-20T15:23:43.229Z,100343.28
2023-09-20T15:26:14.744Z,100340.97
2023-09-20T15:28:44.836Z,100342.72
2023-09-20T15:31:15.390Z,100336.13
2023-09-20T15:33:45.780Z,100332.56
2023-09-20T15:36:17.254Z,100329.81
2023-09-20T15:38:50.337Z,100323.47
2023-09-20T15:41:20.628Z,100326.69
2023-09-20T15:43:52.398Z,100325.28
2023-09-20T15:46:22.574Z,100316.59
2023-09-20T15:48:52.656Z,100315.22
2023-09-20T15:51:26.489Z,100324.09
2023-09-20T15:53:59.936Z,100316.22
2023-09-20T15:56:30.139Z,100322.47
2023-09-20T15:59:02.341Z,100317.06
2023-09-20T16:01:32.809Z,100313.53
2023-09-20T16:04:04.728Z,100311.59
2023-09-20T16:06:35.414Z,100313.16
2023-09-20T16:09:08.234Z,100316.94
2023-09-20T16:11:38.499Z,100306.13
2023-09-20T16:14:09.259Z,100300.13
2023-09-20T16:16:39.696Z,100294.97
2023-09-20T16:19:10.373Z,100294.72
2023-09-20T16:21:40.578Z,100296.06
2023-09-20T16:24:13.572Z,100288.69
2023-09-20T16:26:43.869Z,100285.69
2023-09-20T16:29:14.206Z,100291.56
2023-09-20T16:31:44.284Z,100290.44
2023-09-20T16:34:14.406Z,100295.19
2023-09-20T16:36:44.515Z,100292.94
2023-09-20T16:39:17.272Z,100299.31
2023-09-20T16:41:47.386Z,100296.28
2023-09-20T16:44:17.583Z,100292.91
2023-09-20T16:46:48.863Z,100292.28
2023-09-20T16:49:19.596Z,100287.28
2023-09-20T16:51:49.824Z,100277.22
2023-09-20T16:54:22.576Z,100274.47
2023-09-20T16:56:52.673Z,100283.31
2023-09-20T16:59:22.769Z,100288.13
2023-09-20T17:01:53.839Z,100284.28
2023-09-20T17:04:23.921Z,100287.47
2023-09-20T17:06:54.170Z,100291.47
2023-09-20T17:09:27.095Z,100281.66
2023-09-20T17:11:57.208Z,100282.63
2023-09-20T17:14:29.450Z,100284.44
2023-09-20T17:17:00.385Z,100288.56
2023-09-20T17:19:30.689Z,100295.41
2023-09-20T17:22:04.210Z,100290.41
2023-09-20T17:24:38.033Z,100293.50
2023-09-20T17:27:27.068Z,100292.34
2023-09-20T17:29:59.242Z,100301.66
2023-09-20T17:32:29.673Z,100287.25
2023-09-20T17:34:59.872Z,100292.53
2023-09-20T17:37:31.399Z,100291.38
2023-09-20T17:40:06.906Z,100297.72
2023-09-20T17:42:37.698Z,100296.56
2023-09-20T17:45:10.745Z,100298.56
2023-09-20T17:47:43.523Z,100289.22
2023-09-20T17:50:14.262Z,100297.97
2023-09-20T17:52:48.326Z,100290.84
2023-09-20T17:55:21.465Z,100298.25
2023-09-20T17:57:52.500Z,100301.31
2023-09-20T18:00:26.006Z,100295.00
2023-09-20T18:02:57.678Z,100297.00
2023-09-20T18:05:28.269Z,100290.88
2023-09-20T18:07:58.676Z,100292.19
2023-09-20T18:10:31.436Z,100299.69
2023-09-20T18:13:01.482Z,100297.69
2023-09-20T18:15:31.602Z,100301.91
2023-09-20T18:18:01.933Z,100297.47
2023-09-20T18:20:32.137Z,100295.44
2023-09-20T18:23:03.088Z,100292.16
2023-09-20T18:25:41.910Z,100295.09
2023-09-20T18:28:16.030Z,100299.28
2023-09-20T18:30:46.833Z,100310.16
2023-09-20T18:33:17.695Z,100307.59
2023-09-20T18:35:48.454Z,100296.69
2023-09-20T18:38:18.557Z,100303.59
2023-09-20T18:40:51.447Z,100301.59
2023-09-20T18:43:21.462Z,100304.75
2023-09-20T18:45:51.533Z,100299.69
2023-09-20T18:48:21.681Z,100301.66
2023-09-20T18:50:53.795Z,100301.53
2023-09-20T18:53:27.878Z,100302.22
2023-09-20T18:56:00.609Z,100291.91
2023-09-20T18:58:34.459Z,100299.41
2023-09-20T19:01:14.387Z,100294.47
2023-09-20T19:03:47.516Z,100300.09
2023-09-20T19:06:21.329Z,100297.47
2023-09-20T19:08:54.270Z,100296.25
2023-09-20T19:11:29.406Z,100288.28
2023-09-20T19:14:00.060Z,100294.34
2023-09-20T19:16:30.196Z,100291.06
2023-09-20T19:19:00.963Z,100298.75
2023-09-20T19:21:34.638Z,100298.63
2023-09-20T19:24:10.161Z,100302.00
2023-09-20T19:26:43.107Z,100311.78
2023-09-20T19:29:15.328Z,100307.69
2023-09-20T19:31:45.522Z,100315.75
2023-09-20T19:34:16.333Z,100306.47
2023-09-20T19:36:47.231Z,100312.88
2023-09-20T19:39:17.380Z,100308.19
2023-09-20T19:41:53.721Z,100318.13
2023-09-20T19:44:23.945Z,100313.78
2023-09-20T19:46:53.951Z,100314.25
2023-09-20T19:49:26.188Z,100314.09
2023-09-20T19:52:00.385Z,100312.31
2023-09-20T19:54:31.664Z,100316.50
2023-09-20T19:57:04.424Z,100307.22
2023-09-20T19:59:34.595Z,100306.22
2023-09-20T20:02:04.700Z,100305.41
2023-09-20T20:04:35.480Z,100302.13
2023-09-20T20:07:17.631Z,100291.16
2023-09-20T20:09:56.703Z,100307.06
2023-09-20T20:12:30.248Z,100295.50
2023-09-20T20:15:00.335Z,100287.06
2023-09-20T20:17:30.645Z,100290.34
2023-09-20T20:20:01.050Z,100293.25
2023-09-20T20:22:32.672Z,100282.69
2023-09-20T20:25:04.739Z,100285.00
2023-09-20T20:27:40.270Z,100276.38
2023-09-20T20:30:11.631Z,100272.84
2023-09-20T20:32:42.641Z,100268.75
2023-09-20T20:35:15.841Z,100267.94
2023-09-20T20:37:48.813Z,100270.84
2023-09-20T20:40:22.439Z,100272.72
2023-09-20T20:42:56.370Z,100281.81
2023-09-20T20:45:26.482Z,100279.34
2023-09-20T20:47:57.432Z,100271.06
2023-09-20T20:50:31.794Z,100263.00
2023-09-20T20:53:02.871Z,100262.19
2023-09-20T20:55:33.360Z,100259.13
2023-09-20T20:58:12.059Z,100257.94
2023-09-20T21:00:51.970Z,100264.13
2023-09-20T21:03:22.840Z,100255.47
2023-09-20T21:05:54.381Z,100263.16
2023-09-20T21:08:24.621Z,100257.41
2023-09-20T21:10:56.192Z,100259.09
2023-09-20T21:13:32.292Z,100253.34
2023-09-20T21:16:03.227Z,100257.28
2023-09-20T21:18:39.580Z,100250.13
2023-09-20T21:21:11.584Z,100252.66
2023-09-20T21:23:41.770Z,100246.31
2023-09-20T21:26:12.077Z,100242.22
2023-09-20T21:28:45.128Z,100246.97
2023-09-20T21:31:18.820Z,100237.50
2023-09-20T21:33:50.569Z,100235.44
2023-09-20T21:36:21.354Z,100237.97
2023-09-20T21:38:51.638Z,100233.50
2023-09-20T21:41:21.655Z,100238.06
2023-09-20T21:43:54.430Z,100236.84
2023-09-20T21:46:24.588Z,100233.56
2023-09-20T21:48:54.857Z,100235.44
2023-09-20T21:51:24.949Z,100231.50
2023-09-20T21:53:55.050Z,100240.59
2023-09-20T21:56:25.291Z,100235.66
2023-09-20T21:59:02.304Z,100230.28
2023-09-20T22:01:32.367Z,100230.94
2023-09-20T22:04:02.989Z,100225.81
2023-09-20T22:06:33.329Z,100229.16
2023-09-20T22:09:03.728Z,100230.63
2023-09-20T22:11:33.841Z,100226.75
2023-09-20T22:14:06.787Z,100220.56
2023-09-20T22:16:39.579Z,100226.31
2023-09-20T22:19:10.782Z,100212.47
2023-09-20T22:21:41.602Z,100208.75
2023-09-20T22:24:11.926Z,100209.56
2023-09-20T22:26:42.044Z,100215.97
2023-09-20T22:29:14.770Z,100210.81
2023-09-20T22:31:45.683Z,100206.50
2023-09-20T22:34:16.064Z,100212.47
2023-09-20T22:36:46.125Z,100211.44
2023-09-20T22:39:18.777Z,100201.38
2023-09-20T22:41:49.961Z,100201.59
2023-09-20T22:44:22.954Z,100201.59
2023-09-20T22:46:56.763Z,100197.03
2023-09-20T22:49:26.890Z,100195.19
2023-09-20T22:51:58.192Z,100194.97
2023-09-20T22:54:28.275Z,100199.72
2023-09-20T22:56:58.390Z,100196.44
2023-09-20T22:59:36.451Z,100204.69
2023-09-20T23:02:07.538Z,100198.94
2023-09-20T23:04:37.711Z,100189.50
2023-09-20T23:07:07.868Z,100194.69
2023-09-20T23:09:38.698Z,100192.22
2023-09-20T23:12:17.075Z,100193.25
2023-09-20T23:14:51.073Z,100188.94
2023-09-20T23:17:22.752Z,100190.56
2023-09-20T23:19:53.272Z,100191.41
2023-09-20T23:22:27.102Z,100192.66
2023-09-20T23:25:00.745Z,100184.22
2023-09-20T23:27:31.288Z,100184.22
2023-09-20T23:30:04.966Z,100182.75
2023-09-20T23:32:35.328Z,100183.19
2023-09-20T23:35:05.388Z,100185.72
2023-09-20T23:37:36.520Z,100184.94
2023-09-20T23:40:10.896Z,100179.63
2023-09-20T23:42:41.793Z,100171.78
2023-09-20T23:45:15.521Z,100172.41
2023-09-20T23:47:46.441Z,100184.53
2023-09-20T23:50:17.723Z,100175.47
2023-09-20T23:52:47.790Z,100180.00
2023-09-20T23:55:18.132Z,100174.66
2023-09-20T23:57:48.182Z,100176.94
